Time;durP1;ratioP1;P1;durP2;ratioP2;P2;SDS_P1;SDS_P2;PMS_P1;PMS_P2;Temp;Humidity;BMP_temperature;BMP_pressure;BME280_temperature;BME280_humidity;BME280_pressure;Samples;Min_cycle;Max_cycle;Signal;HPM_P1;HPM_P2
2024/02/04 00:00:42;;;;;;;;;3.00;3.00;;;;;15.75;100.00;102499.03;2099465;28;47244;-72
2024/02/04 00:01:43;;;;;;;;;4.67;4.33;;;;;15.72;100.00;102499.03;2101058;28;46280;-72
2024/02/04 00:02:43;;;;;;;;;4.00;4.00;;;;;15.81;100.00;102501.59;2099428;28;46330;-73
2024/02/04 00:03:44;;;;;;;;;3.00;3.00;;;;;15.83;100.00;102510.47;2099446;28;46250;-74
2024/02/04 00:04:44;;;;;;;;;4.67;3.00;;;;;15.82;100.00;102507.81;2091095;28;46759;-70
2024/02/04 00:05:45;;;;;;;;;3.67;3.67;;;;;15.82;100.00;102505.16;2090875;28;46606;-72
2024/02/04 00:06:45;;;;;;;;;3.00;3.00;;;;;15.78;100.00;102500.75;2099780;28;46605;-71
2024/02/04 00:07:46;;;;;;;;;3.33;3.33;;;;;15.80;100.00;102507.84;2099927;28;46319;-73
2024/02/04 00:08:46;;;;;;;;;5.67;4.00;;;;;15.53;100.00;102511.78;2100003;28;46852;-70
2024/02/04 00:09:46;;;;;;;;;5.00;5.00;;;;;15.70;100.00;102514.25;2100098;28;46722;-71
2024/02/04 00:10:47;;;;;;;;;3.33;3.00;;;;;15.72;100.00;102508.88;2100092;28;46408;-73
2024/02/04 00:11:47;;;;;;;;;2.00;2.00;;;;;15.58;100.00;102511.69;2099662;28;46466;-72
2024/02/04 00:12:48;;;;;;;;;4.67;3.33;;;;;15.65;100.00;102513.44;2098708;28;46125;-71
2024/02/04 00:13:48;;;;;;;;;3.00;3.00;;;;;15.63;100.00;102515.25;2086311;28;46464;-73
2024/02/04 00:14:52;;;;;;;;;4.00;4.00;;;;;15.44;100.00;102511.88;2086340;28;46851;-70
2024/02/04 00:15:54;;;;;;;;;4.25;4.25;;;;;15.80;100.00;102515.88;2099516;28;46533;-73
2024/02/04 00:16:54;;;;;;;;;2.75;2.75;;;;;15.74;100.00;102510.59;2090905;28;46681;-72
2024/02/04 00:17:54;;;;;;;;;2.33;2.33;;;;;15.70;100.00;102516.91;2091335;28;46798;-72
2024/02/04 00:18:55;;;;;;;;;4.00;3.00;;;;;15.78;100.00;102515.03;2099755;28;46802;-71
2024/02/04 00:19:56;;;;;;;;;5.50;5.50;;;;;15.81;100.00;102512.28;2099953;28;46234;-73
2024/02/04 00:20:57;;;;;;;;;4.00;3.00;;;;;15.68;100.00;102513.38;2099159;28;45716;-72
2024/02/04 00:21:57;;;;;;;;;3.00;3.00;;;;;15.71;100.00;102517.81;2100243;28;46363;-72
2024/02/04 00:22:58;;;;;;;;;3.00;3.00;;;;;15.69;100.00;102511.59;2100225;28;46823;-74
2024/02/04 00:23:59;;;;;;;;;4.00;4.00;;;;;15.68;100.00;102512.50;2099221;28;46287;-73
2024/02/04 00:25:04;;;;;;;;;3.33;3.33;;;;;15.86;100.00;102513.09;2099833;28;46732;-72
2024/02/04 00:26:05;;;;;;;;;4.00;4.00;;;;;15.83;100.00;102506.91;2099938;28;46367;-72
2024/02/04 00:27:05;;;;;;;;;4.00;4.00;;;;;15.77;100.00;102510.59;2098865;28;46684;-71
2024/02/04 00:28:05;;;;;;;;;3.00;3.00;;;;;15.82;100.00;102515.84;2095027;28;46498;-72
2024/02/04 00:29:06;;;;;;;;;2.67;2.67;;;;;15.83;100.00;102513.16;2096206;28;46212;-74
2024/02/04 00:30:07;;;;;;;;;3.00;3.00;;;;;15.77;100.00;102504.34;2094785;28;46375;-71
2024/02/04 00:31:07;;;;;;;;;3.75;3.75;;;;;15.81;100.00;102500.72;2094862;28;46852;-74
2024/02/04 00:32:08;;;;;;;;;4.67;3.33;;;;;15.79;100.00;102492.69;2095144;28;46843;-73
2024/02/04 00:33:08;;;;;;;;;3.00;3.00;;;;;15.79;100.00;102505.19;2096214;28;46378;-74
2024/02/04 00:34:08;;;;;;;;;4.67;3.00;;;;;15.83;100.00;102501.56;2095547;28;46453;-71
2024/02/04 00:35:09;;;;;;;;;3.00;3.00;;;;;15.79;100.00;102502.53;2096237;28;45897;-73
2024/02/04 00:36:09;;;;;;;;;3.67;3.67;;;;;15.84;100.00;102498.84;2096261;28;46315;-72
2024/02/04 00:37:10;;;;;;;;;4.33;3.00;;;;;15.83;100.00;102498.88;2096253;28;46139;-73
2024/02/04 00:38:10;;;;;;;;;2.00;2.00;;;;;15.78;100.00;102503.44;2095834;28;45804;-73
2024/02/04 00:39:11;;;;;;;;;3.00;3.00;;;;;15.85;100.00;102499.75;2096922;28;46476;-74
2024/02/04 00:40:11;;;;;;;;;6.33;5.00;;;;;15.85;100.00;102502.41;2095611;28;47291;-73
2024/02/04 00:41:12;;;;;;;;;3.67;3.67;;;;;15.85;100.00;102497.06;2096205;28;46657;-72
2024/02/04 00:42:12;;;;;;;;;6.33;4.67;;;;;15.83;100.00;102499.75;2095109;28;46343;-72
2024/02/04 00:43:12;;;;;;;;;6.00;4.67;;;;;15.89;100.00;102499.69;2093740;28;46583;-72
2024/02/04 00:44:13;;;;;;;;;5.33;3.00;;;;;15.88;100.00;102497.94;2095995;28;46676;-72
2024/02/04 00:45:14;;;;;;;;;3.00;3.00;;;;;15.89;100.00;102499.69;2095635;28;46624;-75
2024/02/04 00:46:14;;;;;;;;;3.00;3.00;;;;;15.94;100.00;102504.09;2096062;28;46170;-72
2024/02/04 00:47:14;;;;;;;;;4.67;4.67;;;;;15.95;100.00;102505.84;2096211;28;46635;-73
2024/02/04 00:48:15;;;;;;;;;3.00;3.00;;;;;15.93;100.00;102497.84;2095837;28;45636;-72
2024/02/04 00:49:15;;;;;;;;;3.67;3.67;;;;;15.93;100.00;102499.63;2095997;28;46224;-72
2024/02/04 00:50:15;;;;;;;;;2.67;2.67;;;;;15.97;100.00;102494.19;2095880;28;46311;-70
2024/02/04 00:51:19;;;;;;;;;3.00;3.00;;;;;15.81;100.00;102493.56;2095844;28;45765;-73
2024/02/04 00:52:19;;;;;;;;;2.75;2.75;;;;;15.77;100.00;102499.00;2095534;28;46516;-71
2024/02/04 00:53:20;;;;;;;;;4.00;4.00;;;;;15.78;100.00;102501.63;2095148;28;45582;-71
2024/02/04 00:54:20;;;;;;;;;3.00;3.00;;;;;15.70;100.00;102498.19;2095522;28;46810;-72
2024/02/04 00:55:21;;;;;;;;;2.00;2.00;;;;;15.60;100.00;102501.88;2095633;28;46534;-71
2024/02/04 00:56:21;;;;;;;;;2.00;2.00;;;;;15.71;100.00;102504.41;2096057;28;45669;-72
2024/02/04 00:57:21;;;;;;;;;2.33;2.33;;;;;15.65;100.00;102504.53;2095885;28;46271;-71
2024/02/04 00:58:22;;;;;;;;;5.00;4.00;;;;;15.57;100.00;102500.13;2095480;28;45702;-72
2024/02/04 00:59:22;;;;;;;;;2.67;2.67;;;;;15.54;100.00;102497.50;2096506;28;46207;-73
2024/02/04 01:00:22;;;;;;;;;3.00;3.00;;;;;15.54;100.00;102497.50;2095546;28;46327;-70
2024/02/04 01:01:23;;;;;;;;;2.67;2.67;;;;;15.73;100.00;102498.13;2095458;28;46001;-73
2024/02/04 01:02:23;;;;;;;;;1.67;1.67;;;;;15.75;100.00;102507.03;2095701;28;46484;-73
2024/02/04 01:03:23;;;;;;;;;2.00;2.00;;;;;15.68;100.00;102508.03;2095552;28;46569;-71
2024/02/04 01:04:24;;;;;;;;;2.33;2.33;;;;;15.71;100.00;102507.97;2095831;28;46781;-73
2024/02/04 01:05:24;;;;;;;;;2.00;2.00;;;;;15.65;100.00;102505.41;2094593;28;46688;-73
2024/02/04 01:06:25;;;;;;;;;3.00;3.00;;;;;15.80;100.00;102505.19;2095872;28;46168;-71
2024/02/04 01:07:25;;;;;;;;;3.00;3.00;;;;;15.71;100.00;102505.31;2095867;28;46319;-72
2024/02/04 01:08:25;;;;;;;;;2.00;2.00;;;;;15.68;100.00;102505.34;2095810;28;46838;-71
2024/02/04 01:09:26;;;;;;;;;2.00;2.00;;;;;15.56;100.00;102502.81;2096368;28;46855;-73
2024/02/04 01:10:26;;;;;;;;;2.67;2.00;;;;;15.80;100.00;102509.66;2095776;28;46510;-71
2024/02/04 01:11:26;;;;;;;;;3.00;3.00;;;;;15.88;100.00;102492.56;2095804;28;46313;-72
2024/02/04 01:12:27;;;;;;;;;2.00;2.00;;;;;15.86;100.00;102502.38;2096891;28;45541;-71
2024/02/04 01:13:28;;;;;;;;;2.00;2.00;;;;;15.86;100.00;102499.72;2103464;28;46585;-72
2024/02/04 01:14:28;;;;;;;;;2.00;2.00;;;;;15.95;100.00;102497.81;2103979;28;46851;-72
2024/02/04 01:15:28;;;;;;;;;2.00;2.00;;;;;15.68;100.00;102494.66;2096614;28;47033;-72
2024/02/04 01:16:29;;;;;;;;;2.67;2.00;;;;;15.85;100.00;102494.38;2095636;28;46595;-72
2024/02/04 01:17:29;;;;;;;;;4.33;2.00;;;;;15.86;100.00;102496.16;2094087;28;46181;-73
2024/02/04 01:18:31;;;;;;;;;2.00;2.00;;;;;15.92;100.00;102497.88;2095577;28;46322;-73
2024/02/04 01:19:31;;;;;;;;;2.00;2.00;;;;;15.87;100.00;102496.13;2095574;28;45812;-72
2024/02/04 01:20:32;;;;;;;;;1.00;1.00;;;;;15.95;100.00;102503.16;2095833;28;46281;-73
2024/02/04 01:21:32;;;;;;;;;2.00;2.00;;;;;15.95;100.00;102495.13;2096077;28;45531;-72
2024/02/04 01:22:32;;;;;;;;;2.00;2.00;;;;;15.97;100.00;102499.56;2095627;28;47078;-71
2024/02/04 01:23:33;;;;;;;;;1.33;1.33;;;;;15.95;100.00;102498.69;2095775;28;47031;-73
2024/02/04 01:24:33;;;;;;;;;1.00;1.00;;;;;16.00;100.00;102490.56;2096126;28;46379;-71
2024/02/04 01:25:33;;;;;;;;;3.00;1.00;;;;;15.65;100.00;102491.13;2095992;28;46333;-70
2024/02/04 01:26:33;;;;;;;;;1.00;1.00;;;;;15.60;100.00;102483.16;2095560;28;46226;-73
2024/02/04 01:27:34;;;;;;;;;1.00;1.00;;;;;15.58;100.00;102485.81;2095515;28;46437;-73
2024/02/04 01:28:35;;;;;;;;;1.00;1.00;;;;;15.50;100.00;102482.41;2094358;28;46484;-73
2024/02/04 01:29:35;;;;;;;;;3.00;1.75;;;;;15.83;100.00;102490.84;2094429;28;46540;-72
2024/02/04 01:30:37;;;;;;;;;2.00;1.00;;;;;15.95;100.00;102492.47;2096337;28;46870;-72
2024/02/04 01:31:37;;;;;;;;;2.00;2.00;;;;;15.95;100.00;102488.00;2095916;28;47323;-72
2024/02/04 01:32:37;;;;;;;;;1.33;1.33;;;;;15.98;100.00;102492.41;2095503;28;46554;-71
2024/02/04 01:33:37;;;;;;;;;2.00;2.00;;;;;15.99;100.00;102483.47;2096074;28;46335;-71
2024/02/04 01:34:38;;;;;;;;;1.67;1.00;;;;;15.99;100.00;102489.69;2094203;28;46094;-71
2024/02/04 01:35:38;;;;;;;;;1.00;1.00;;;;;16.01;100.00;102492.38;2095704;28;46875;-74
2024/02/04 01:36:38;;;;;;;;;2.00;2.00;;;;;15.99;100.00;102488.81;2095462;28;45575;-73
2024/02/04 01:37:39;;;;;;;;;2.00;1.00;;;;;15.93;100.00;102489.81;2094656;28;46349;-73
2024/02/04 01:38:39;;;;;;;;;3.00;2.00;;;;;15.89;100.00;102498.81;2085907;28;45437;-71
2024/02/04 01:39:39;;;;;;;;;1.33;1.33;;;;;15.90;100.00;102489.88;2085786;28;48874;-72
2024/02/04 01:40:40;;;;;;;;;2.00;2.00;;;;;15.96;100.00;102489.75;2095657;28;46542;-70
2024/02/04 01:41:41;;;;;;;;;2.00;1.75;;;;;15.93;100.00;102494.28;2096088;28;46035;-72
2024/02/04 01:42:41;;;;;;;;;0.00;0.00;;;;;15.95;100.00;102479.06;2095825;28;46426;-72
2024/02/04 01:43:41;;;;;;;;;1.00;1.00;;;;;15.98;100.00;102484.38;2095565;28;45662;-73
2024/02/04 01:44:43;;;;;;;;;0.00;0.00;;;;;15.98;100.00;102479.00;2094635;28;45392;-72
2024/02/04 01:45:43;;;;;;;;;2.00;1.00;;;;;15.94;100.00;102478.19;2094171;28;45446;-71
2024/02/04 01:46:44;;;;;;;;;1.33;1.00;;;;;15.92;100.00;102477.34;2102596;28;46630;-72
2024/02/04 01:47:45;;;;;;;;;1.00;1.00;;;;;15.85;100.00;102479.22;2095956;28;46436;-73
2024/02/04 01:48:45;;;;;;;;;0.00;0.00;;;;;15.82;100.00;102473.03;2095698;28;46056;-71
2024/02/04 01:49:46;;;;;;;;;1.00;1.00;;;;;15.86;100.00;102474.72;2095129;28;46163;-72
2024/02/04 01:50:49;;;;;;;;;2.00;2.00;;;;;15.84;100.00;102472.09;2095946;28;45024;-73
2024/02/04 01:51:50;;;;;;;;;1.50;1.50;;;;;15.83;100.00;102473.00;2093162;28;46802;-71
2024/02/04 01:52:52;;;;;;;;;1.00;1.00;;;;;15.81;100.00;102464.09;2095426;28;46630;-72
2024/02/04 01:53:53;;;;;;;;;1.00;1.00;;;;;15.77;100.00;102474.91;2094992;28;46512;-71
2024/02/04 01:54:53;;;;;;;;;2.00;2.00;;;;;15.81;100.00;102464.09;2095439;28;46408;-72
2024/02/04 01:55:54;;;;;;;;;1.00;1.00;;;;;15.78;100.00;102468.63;2095118;28;46163;-74
2024/02/04 01:56:55;;;;;;;;;1.00;1.00;;;;;15.76;100.00;102467.78;2094203;28;46601;-71
2024/02/04 01:57:56;;;;;;;;;1.00;1.00;;;;;15.73;100.00;102459.78;2095739;28;47239;-73
2024/02/04 01:58:57;;;;;;;;;1.00;1.00;;;;;15.66;100.00;102455.44;2085867;28;46412;-72
2024/02/04 01:59:58;;;;;;;;;1.75;1.75;;;;;15.54;100.00;102449.31;2085668;28;46863;-72
2024/02/04 02:00:58;;;;;;;;;1.00;1.00;;;;;15.72;100.00;102453.53;2095393;28;46743;-72
2024/02/04 02:02:02;;;;;;;;;1.00;0.67;;;;;15.81;100.00;102447.16;2095369;28;46333;-71
2024/02/04 02:03:07;;;;;;;;;0.00;0.00;;;;;15.82;100.00;102451.59;2095071;28;46561;-73
2024/02/04 02:04:07;;;;;;;;;2.00;2.00;;;;;15.78;100.00;102450.78;2095438;28;46531;-74
2024/02/04 02:05:09;;;;;;;;;1.00;1.00;;;;;15.80;100.00;102454.31;2095736;28;46639;-72
2024/02/04 02:06:10;;;;;;;;;1.00;1.00;;;;;15.85;100.00;102444.41;2095433;28;46229;-73
2024/02/04 02:07:10;;;;;;;;;2.00;2.00;;;;;15.80;100.00;102446.28;2094768;28;46436;-72
2024/02/04 02:08:11;;;;;;;;;1.00;1.00;;;;;15.75;100.00;102445.47;2094811;28;46513;-73
2024/02/04 02:09:12;;;;;;;;;0.00;0.00;;;;;15.72;100.00;102447.28;2094294;28;46763;-72
2024/02/04 02:10:13;;;;;;;;;1.25;1.00;;;;;15.71;100.00;102440.19;2095449;28;45905;-73
2024/02/04 02:11:24;;;;;;;;;3.75;2.00;;;;;15.78;100.00;102433.84;2095065;28;46738;-72
2024/02/04 02:12:30;;;;;;;;;0.50;0.50;;;;;15.79;100.00;102440.97;2095399;28;46300;-72
2024/02/04 02:13:33;;;;;;;;;1.00;0.50;;;;;15.81;100.00;102437.34;2095476;28;45585;-73
2024/02/04 02:14:37;;;;;;;;;1.00;1.00;;;;;15.83;100.00;102440.00;2095514;28;46122;-71
2024/02/04 02:15:45;;;;;;;;;1.00;1.00;;;;;15.71;100.00;102429.47;2095529;28;47160;-72
2024/02/04 02:16:46;;;;;;;;;0.50;0.50;;;;;15.74;100.00;102429.41;2095694;28;45666;-72
2024/02/04 02:17:57;;;;;;;;;1.00;1.00;;;;;15.72;100.00;102429.44;2095307;28;46670;-72
2024/02/04 02:19:12;;;;;;;;;1.25;0.00;;;;;15.83;100.00;102427.47;2095600;28;46528;-72
2024/02/04 02:20:21;;;;;;;;;0.75;0.25;;;;;15.96;100.00;102425.50;2095974;28;46717;-72
2024/02/04 02:21:28;;;;;;;;;1.50;0.00;;;;;15.89;100.00;102421.16;2095786;28;46346;-72
2024/02/04 02:22:41;;;;;;;;;1.00;0.00;;;;;15.86;100.00;102421.19;2094896;28;46897;-70
2024/02/04 02:23:58;;;;;;;;;0.75;0.75;;;;;15.86;100.00;102410.47;2095445;28;47249;-71
2024/02/04 02:24:59;;;;;;;;;1.00;1.00;;;;;15.92;100.00;102420.22;2095932;28;46817;-71
2024/02/04 02:26:00;;;;;;;;;0.50;0.50;;;;;15.89;100.00;102413.13;2094142;28;46454;-72
2024/02/04 02:27:01;;;;;;;;;2.00;0.67;;;;;15.86;100.00;102421.19;2095621;28;46869;-72
2024/02/04 02:28:01;;;;;;;;;1.00;1.00;;;;;15.92;100.00;102417.53;2095024;28;46375;-71
2024/02/04 02:29:01;;;;;;;;;0.00;0.00;;;;;15.95;100.00;102417.47;2095487;28;46311;-73
2024/02/04 02:30:02;;;;;;;;;0.00;0.00;;;;;15.96;100.00;102413.91;2095181;28;46964;-71
2024/02/04 02:31:02;;;;;;;;;1.00;0.67;;;;;15.95;100.00;102414.81;2093267;28;46659;-72
2024/02/04 02:32:03;;;;;;;;;1.33;0.00;;;;;15.86;100.00;102421.19;2093965;28;45566;-73
2024/02/04 02:33:06;;;;;;;;;1.00;1.00;;;;;15.75;100.00;102424.06;2095145;28;46538;-73
2024/02/04 02:34:07;;;;;;;;;0.00;0.00;;;;;15.59;100.00;102422.47;2095454;28;46496;-74
2024/02/04 02:35:08;;;;;;;;;0.50;0.50;;;;;15.66;100.00;102428.66;2094930;28;46631;-74
2024/02/04 02:36:17;;;;;;;;;0.33;0.33;;;;;15.59;100.00;102425.16;2095577;28;46390;-73
2024/02/04 02:37:41;;;;;;;;;0.00;0.00;;;;;15.48;100.00;102433.34;2094411;28;46445;-74
2024/02/04 02:39:09;;;;;;;;;0.25;0.25;;;;;15.63;100.00;102428.72;2094448;28;46677;-73
2024/02/04 02:40:21;;;;;;;;;0.25;0.00;;;;;15.63;100.00;102428.72;2095033;28;46151;-71
2024/02/04 02:41:22;;;;;;;;;0.00;0.00;;;;;15.65;100.00;102422.44;2095417;28;46755;-73
2024/02/04 02:42:23;;;;;;;;;0.75;0.75;;;;;15.65;100.00;102422.44;2093916;28;46633;-72
2024/02/04 02:43:25;;;;;;;;;1.25;0.00;;;;;15.69;100.00;102424.16;2094955;28;45802;-68
2024/02/04 02:44:26;;;;;;;;;0.50;0.25;;;;;15.69;100.00;102423.25;2095345;28;46181;-72
2024/02/04 02:45:27;;;;;;;;;0.50;0.50;;;;;15.72;100.00;102426.78;2095197;28;46545;-72
2024/02/04 02:46:28;;;;;;;;;0.00;0.00;;;;;15.74;100.00;102430.31;2094386;28;45972;-72
2024/02/04 02:47:29;;;;;;;;;2.00;0.67;;;;;15.77;100.00;102426.72;2093471;28;46084;-72
2024/02/04 02:48:30;;;;;;;;;1.00;1.00;;;;;15.73;100.00;102425.84;2095267;28;47013;-73
2024/02/04 02:49:31;;;;;;;;;0.67;0.67;;;;;15.70;100.00;102423.25;2095103;28;46801;-72
2024/02/04 02:50:31;;;;;;;;;0.00;0.00;;;;;15.74;100.00;102424.94;2094566;28;46646;-71
2024/02/04 02:51:31;;;;;;;;;0.00;0.00;;;;;15.72;100.00;102420.53;2095759;28;46295;-73
2024/02/04 02:52:31;;;;;;;;;0.00;0.00;;;;;15.75;100.00;102420.47;2095143;28;46533;-71
2024/02/04 02:53:32;;;;;;;;;0.00;0.00;;;;;15.62;100.00;102421.56;2093899;28;45890;-71
2024/02/04 02:54:32;;;;;;;;;1.67;1.00;;;;;15.63;100.00;102426.06;2094554;28;48268;-72
2024/02/04 02:55:32;;;;;;;;;0.00;0.00;;;;;15.58;100.00;102420.72;2094718;28;46739;-73
2024/02/04 02:56:33;;;;;;;;;0.00;0.00;;;;;15.58;100.00;102426.06;2095136;28;46617;-73
2024/02/04 02:57:33;;;;;;;;;0.67;0.67;;;;;15.54;100.00;102425.25;2094835;28;46363;-73
2024/02/04 02:58:33;;;;;;;;;1.00;0.00;;;;;15.56;100.00;102415.41;2094786;28;46122;-73
2024/02/04 02:59:34;;;;;;;;;0.00;0.00;;;;;15.53;100.00;102423.47;2095203;28;46508;-73
2024/02/04 03:00:34;;;;;;;;;1.00;1.00;;;;;15.51;100.00;102417.25;2092107;28;46376;-74
2024/02/04 03:01:39;;;;;;;;;0.00;0.00;;;;;15.51;100.00;102413.72;2093860;28;46734;-72
2024/02/04 03:02:39;;;;;;;;;1.00;1.00;;;;;15.50;100.00;102411.91;2093564;28;46673;-74
2024/02/04 03:03:40;;;;;;;;;0.00;0.00;;;;;15.58;100.00;102410.91;2093810;28;46733;-74
2024/02/04 03:04:40;;;;;;;;;0.00;0.00;;;;;15.59;100.00;102425.16;2093588;28;46732;-71
2024/02/04 03:05:40;;;;;;;;;0.00;0.00;;;;;15.58;100.00;102421.59;2094686;28;45785;-71
2024/02/04 03:06:40;;;;;;;;;0.00;0.00;;;;;15.56;100.00;102419.84;2093964;28;45964;-73
2024/02/04 03:07:41;;;;;;;;;0.00;0.00;;;;;15.64;100.00;102423.34;2094185;28;47087;-71
2024/02/04 03:08:41;;;;;;;;;0.00;0.00;;;;;15.71;100.00;102424.13;2094032;28;46219;-70
2024/02/04 03:09:41;;;;;;;;;0.00;0.00;;;;;15.73;100.00;102420.50;2094090;28;46274;-72
2024/02/04 03:10:42;;;;;;;;;1.00;1.00;;;;;15.76;100.00;102428.50;2094019;28;47323;-72
2024/02/04 03:11:42;;;;;;;;;1.00;1.00;;;;;15.77;100.00;102421.38;2085601;28;46248;-71
2024/02/04 03:12:42;;;;;;;;;2.00;2.00;;;;;15.75;100.00;102431.19;2085620;28;46079;-73
2024/02/04 03:13:43;;;;;;;;;0.00;0.00;;;;;15.67;100.00;102423.28;2094142;28;46613;-74
2024/02/04 03:14:43;;;;;;;;;0.00;0.00;;;;;15.59;100.00;102419.81;2085326;28;47169;-70
2024/02/04 03:15:43;;;;;;;;;1.00;1.00;;;;;15.62;100.00;102421.56;2085545;28;46123;-71
2024/02/04 03:16:45;;;;;;;;;0.33;0.33;;;;;15.59;100.00;102423.41;2091884;28;46137;-71
2024/02/04 03:17:45;;;;;;;;;2.00;1.00;;;;;15.54;100.00;102416.31;2094424;28;45752;-71
2024/02/04 03:18:46;;;;;;;;;0.00;0.00;;;;;15.52;100.00;102418.16;2094056;28;45279;-70
2024/02/04 03:19:51;;;;;;;;;1.00;1.00;;;;;15.53;100.00;102420.81;2094009;28;46350;-70
2024/02/04 03:20:51;;;;;;;;;0.50;0.50;;;;;15.51;100.00;102416.38;2093681;28;46389;-72
2024/02/04 03:21:52;;;;;;;;;1.00;1.00;;;;;15.58;100.00;102418.03;2093077;28;46322;-71
2024/02/04 03:22:52;;;;;;;;;1.00;1.00;;;;;15.56;100.00;102410.03;2093918;28;46761;-72
2024/02/04 03:23:52;;;;;;;;;1.00;1.00;;;;;15.48;100.00;102413.72;2093834;28;46288;-71
2024/02/04 03:24:53;;;;;;;;;1.00;1.00;;;;;15.46;100.00;102419.09;2094007;28;46805;-71
2024/02/04 03:25:53;;;;;;;;;1.00;1.00;;;;;15.51;100.00;102421.72;2093917;28;46218;-72
2024/02/04 03:26:53;;;;;;;;;1.00;0.00;;;;;15.45;100.00;102419.13;2093857;28;46351;-72
2024/02/04 03:27:54;;;;;;;;;1.00;1.00;;;;;15.43;100.00;102419.16;2094025;28;46102;-72
2024/02/04 03:28:54;;;;;;;;;0.00;0.00;;;;;15.41;100.00;102414.75;2093782;28;46551;-70
2024/02/04 03:29:54;;;;;;;;;0.33;0.33;;;;;15.48;100.00;102419.06;2093951;28;46253;-72
2024/02/04 03:30:55;;;;;;;;;1.00;1.00;;;;;15.51;100.00;102417.25;2094143;28;45600;-72
2024/02/04 03:31:56;;;;;;;;;2.00;1.00;;;;;15.51;100.00;102421.72;2094107;28;46271;-72
2024/02/04 03:32:56;;;;;;;;;0.00;0.00;;;;;15.44;100.00;102422.72;2094681;28;47890;-70
2024/02/04 03:33:56;;;;;;;;;0.00;0.00;;;;;15.53;100.00;102427.94;2093986;28;46200;-72
2024/02/04 03:34:57;;;;;;;;;3.00;1.00;;;;;15.56;100.00;102428.78;2094919;28;46310;-73
2024/02/04 03:35:57;;;;;;;;;0.00;0.00;;;;;15.55;100.00;102423.44;2095536;28;46493;-73
2024/02/04 03:36:57;;;;;;;;;0.67;0.67;;;;;15.54;100.00;102427.91;2094914;28;46525;-71
2024/02/04 03:37:58;;;;;;;;;1.00;1.00;;;;;15.55;100.00;102420.78;2095359;28;46380;-72
2024/02/04 03:38:58;;;;;;;;;1.00;1.00;;;;;15.52;100.00;102429.75;2093805;28;46927;-71
2024/02/04 03:39:58;;;;;;;;;1.00;1.00;;;;;15.51;100.00;102429.75;2095242;28;46637;-71
2024/02/04 03:40:58;;;;;;;;;0.00;0.00;;;;;15.45;100.00;102419.13;2095140;28;46660;-71
2024/02/04 03:41:59;;;;;;;;;0.00;0.00;;;;;15.50;100.00;102423.53;2095115;28;47170;-72
2024/02/04 03:42:59;;;;;;;;;1.00;1.00;;;;;15.45;100.00;102420.00;2093536;28;46343;-73
2024/02/04 03:43:59;;;;;;;;;1.67;0.33;;;;;15.62;100.00;102424.25;2094108;28;45947;-76
2024/02/04 03:45:02;;;;;;;;;1.00;1.00;;;;;15.53;100.00;102418.13;2093328;28;46886;-73
2024/02/04 03:46:03;;;;;;;;;1.00;0.00;;;;;15.56;100.00;102414.50;2095177;28;47612;-73
2024/02/04 03:47:03;;;;;;;;;1.67;1.00;;;;;15.55;100.00;102418.97;2094009;28;45885;-70
2024/02/04 03:48:04;;;;;;;;;0.00;0.00;;;;;15.41;100.00;102415.63;2094916;28;46779;-72
2024/02/04 03:49:04;;;;;;;;;1.00;1.00;;;;;15.40;100.00;102419.22;2094129;28;46415;-71
2024/02/04 03:50:05;;;;;;;;;1.00;1.00;;;;;15.43;100.00;102421.84;2093619;28;45464;-73
2024/02/04 03:51:05;;;;;;;;;1.00;0.33;;;;;15.52;100.00;102419.03;2085080;28;45525;-72
2024/02/04 03:52:06;;;;;;;;;0.00;0.00;;;;;15.55;100.00;102423.44;2085170;28;46408;-72
2024/02/04 03:53:06;;;;;;;;;1.00;1.00;;;;;15.52;100.00;102423.50;2094316;28;46245;-72
2024/02/04 03:54:07;;;;;;;;;1.00;1.00;;;;;15.45;100.00;102420.00;2094879;28;46471;-70
2024/02/04 03:55:07;;;;;;;;;0.00;0.00;;;;;15.50;100.00;102423.53;2094469;28;46828;-72
2024/02/04 03:56:08;;;;;;;;;1.00;1.00;;;;;15.34;100.00;102426.44;2094868;28;45792;-73
2024/02/04 03:57:08;;;;;;;;;1.00;1.00;;;;;15.51;100.00;102424.41;2094857;28;46293;-73
2024/02/04 03:58:08;;;;;;;;;0.00;0.00;;;;;15.52;100.00;102427.06;2094631;28;45788;-71
2024/02/04 03:59:10;;;;;;;;;1.00;1.00;;;;;15.52;100.00;102424.38;2095033;28;46606;-72
2024/02/04 04:00:11;;;;;;;;;0.50;0.50;;;;;15.44;100.00;102434.31;2084364;28;46501;-72
2024/02/04 04:01:12;;;;;;;;;1.00;1.00;;;;;15.42;100.00;102436.13;2084924;28;47393;-74
2024/02/04 04:02:13;;;;;;;;;1.00;1.00;;;;;15.41;100.00;102437.03;2095106;28;46377;-74
2024/02/04 04:03:13;;;;;;;;;0.33;0.00;;;;;15.56;100.00;102435.91;2094500;28;47057;-72
2024/02/04 04:04:14;;;;;;;;;1.00;0.33;;;;;15.55;100.00;102436.81;2093486;28;46504;-73
2024/02/04 04:05:14;;;;;;;;;1.00;1.00;;;;;15.58;100.00;102431.41;2094883;28;46813;-70
2024/02/04 04:06:15;;;;;;;;;1.00;1.00;;;;;15.58;100.00;102426.06;2094613;28;46265;-72
2024/02/04 04:07:15;;;;;;;;;0.00;0.00;;;;;15.50;100.00;102434.22;2094474;28;46800;-70
2024/02/04 04:08:16;;;;;;;;;1.67;0.33;;;;;15.47;100.00;102430.69;2096310;28;46511;-71
2024/02/04 04:09:16;;;;;;;;;0.33;0.33;;;;;15.43;100.00;102435.22;2096204;28;45600;-70
2024/02/04 04:10:16;;;;;;;;;0.67;0.67;;;;;15.46;100.00;102435.16;2095693;28;46332;-71
2024/02/04 04:11:17;;;;;;;;;1.00;0.67;;;;;15.46;100.00;102442.31;2095472;28;46746;-72
2024/02/04 04:12:17;;;;;;;;;0.00;0.00;;;;;15.45;100.00;102440.53;2095701;28;46721;-72
2024/02/04 04:13:17;;;;;;;;;3.00;1.00;;;;;15.44;100.00;102442.31;2096255;28;46498;-72
2024/02/04 04:14:18;;;;;;;;;1.00;1.00;;;;;15.43;100.00;102445.03;2095619;28;46556;-70
2024/02/04 04:15:18;;;;;;;;;0.00;0.00;;;;;15.45;100.00;102444.09;2086627;28;46751;-72
2024/02/04 04:16:22;;;;;;;;;0.67;0.67;;;;;15.46;100.00;102443.19;2086221;28;46839;-73
2024/02/04 04:17:22;;;;;;;;;1.00;1.00;;;;;15.49;100.00;102445.81;2095542;28;46656;-73
2024/02/04 04:18:22;;;;;;;;;1.00;1.00;;;;;15.43;100.00;102448.59;2096510;28;45960;-73
2024/02/04 04:19:24;;;;;;;;;1.00;1.00;;;;;15.45;100.00;102445.88;2095740;28;46306;-71
2024/02/04 04:20:24;;;;;;;;;1.00;1.00;;;;;15.53;100.00;102436.84;2096101;28;46562;-72
2024/02/04 04:21:25;;;;;;;;;1.00;1.00;;;;;15.54;100.00;102438.63;2095884;28;45874;-71
2024/02/04 04:22:25;;;;;;;;;1.33;0.67;;;;;15.56;100.00;102435.91;2095001;28;46512;-72
2024/02/04 04:23:25;;;;;;;;;0.00;0.00;;;;;15.54;100.00;102443.09;2095681;28;45652;-73
2024/02/04 04:24:26;;;;;;;;;0.33;0.33;;;;;15.56;100.00;102439.47;2095282;28;46385;-72
2024/02/04 04:25:26;;;;;;;;;0.00;0.00;;;;;15.55;100.00;102436.81;2095645;28;46258;-72
2024/02/04 04:26:26;;;;;;;;;0.67;0.67;;;;;15.56;100.00;102434.13;2096466;28;46667;-71
2024/02/04 04:27:27;;;;;;;;;1.00;1.00;;;;;15.41;100.00;102438.81;2096254;28;45682;-71
2024/02/04 04:28:27;;;;;;;;;1.00;1.00;;;;;15.41;100.00;102438.81;2094954;28;46308;-72
2024/02/04 04:29:27;;;;;;;;;2.00;1.00;;;;;15.59;100.00;102430.50;2095185;28;45946;-72
2024/02/04 04:30:28;;;;;;;;;0.00;0.00;;;;;15.62;100.00;102432.28;2095017;28;47262;-73
2024/02/04 04:31:28;;;;;;;;;1.00;1.00;;;;;15.63;100.00;102434.97;2095942;28;46240;-71
2024/02/04 04:32:29;;;;;;;;;1.33;0.67;;;;;15.63;100.00;102426.06;2096418;28;46757;-73
2024/02/04 04:33:30;;;;;;;;;1.67;1.00;;;;;15.65;100.00;102432.25;2096077;28;46643;-74
2024/02/04 04:34:30;;;;;;;;;1.00;1.00;;;;;15.51;100.00;102427.09;2096107;28;45179;-74
2024/02/04 04:35:30;;;;;;;;;2.00;0.67;;;;;15.64;100.00;102422.47;2095854;28;46195;-73
2024/02/04 04:36:31;;;;;;;;;1.00;1.00;;;;;15.75;100.00;102431.19;2096718;28;46204;-73
2024/02/04 04:37:31;;;;;;;;;1.00;1.00;;;;;15.65;100.00;102422.44;2096204;28;46070;-74
2024/02/04 04:38:31;;;;;;;;;1.00;1.00;;;;;15.54;100.00;102427.91;2094430;28;46766;-74
2024/02/04 04:39:32;;;;;;;;;1.00;0.00;;;;;15.52;100.00;102431.53;2097153;28;45863;-74
2024/02/04 04:40:32;;;;;;;;;0.00;0.00;;;;;15.65;100.00;102421.56;2095971;28;46220;-72
2024/02/04 04:41:32;;;;;;;;;0.00;0.00;;;;;15.53;100.00;102422.59;2095841;28;46178;-73